< < Back
Terminal Aerodrome Forecast


Current Version              Previous Versions:   1  2  3  4  5  6  7  8  9  

Terminal Aerodrome Forecast

074
FTUS44 KBMX 231100
TAFMGM
TAF
KMGM 231125Z 2312/2412 00000KT 1/4SM FG VV001
     FM231300 VRB03KT 3SM BR SKC
     FM231500 35005KT P6SM SKC=



Latest METAR

220
SAUS80 KWBC 231400
MTRMGM
METAR KMGM 231353Z 03004KT 6SM BR BKN005 17/16 A2998 RMK AO2 SLP151
T01720156


USA.gov is the U.S. government's official web portal to all federal, state and local government web resources and services.